Terminal Aerodrome Forecast
Issued by NWS

Home | Current Version | Previous Version | Text Only | Print | Product List | Glossary On
Versions: 1 2 3 4 5 6 7 8 9 10 11 12
000
FTUS45 KVEF 240520
TAFEED
TAF
KEED 240520Z 2406/2506 13018G26KT P6SM SCT150 BKN200
     FM241000 22011KT P6SM SCT150 SCT200 PROB30 2420/2424 VRB20G30KT
      -TSRA BKN100CB=

USA.gov is the U.S. government's official web portal to all federal, state and local government web resources and services.